バマコ の空港の天気 - METARとTAF

バマコ・セヌー国際空港 ( GABS / BKO ) - マリ バマコ
飛行場実況気象(Metar)
観測時間01/23 05:30 GMT (01/23 05:30 UTC)
風向・風速東北東 3m/s
視程10km以上
天気現象
なし
気温17℃
湿度22%
気圧1014hPa
METARGABS 230530Z 06005KT CAVOK 17/M05 Q1014 NOSIG
過去の天気等 Google飛行場航空写真 Wunderground天気予報

過去48時間のMETAR

飛行場予報(TAF)
発表時間: 1/22 23:25 GMT (1/22 23:25 UTC)
予報対象時間: 23日0時 GMT ~ 24日6時 GMT
風向・風速北東 4m/s
視程8,000m
なし
23日6時 GMT ~ 23日12時 GMT に 確率 40% で一時的に
視程4,000m
天気現象風塵
23日8時 GMT ~ 23日16時 GMT に一時的に
風向・風速東 9m/s
TAF GABS 222325Z 2300/2406 04008KT 8000 NSC
PROB40 TEMPO 2306/2312 4000 DU
TEMPO 2308/2316 08018KT